Westview Chinook — VG3278 — position and weather

sailwx.info

Track history (hours):
 
Tides and Currents Weather Stations Pressure Air Temp Water Temp Dewpoint Dewpoint Depression Visibility Wind Speed Wind Dir Waves Ship Positions

Westview Chinook

Last reported at 2017-Jan-17 16:33 UTC. Time now 2017-Jan-17 17:07 UTC.
Position N 49°09' W 123°00'.

Length 15 m.

Type: Tug. MMSI: 316005622.

Date/timePositionNaut miles runAvg speedWind from/ knotsBaromVisibWave heightAir tempDewpointWater temp
2017-Jan-17 16:33N 49°09' W 123°00'0 0.0
2017-Jan-17 15:33N 49°09' W 123°00'5 5.3
2017-Jan-17 14:33N 49°12' W 122°54'3 2.9
2017-Jan-17 13:34N 49°13' W 122°50'4 3.7
2017-Jan-17 12:33N 49°12' W 122°55'5 5.5
2017-Jan-17 11:33N 49°09' W 123°02'5 4.8
2017-Jan-17 10:33N 49°07' W 123°09'4 4.1
2017-Jan-17 09:33N 49°08' W 123°15'3 2.7
2017-Jan-17 08:33N 49°08' W 123°19'7 7.5
2017-Jan-17 07:33N 49°15' W 123°16'8 8.2
2017-Jan-17 06:33N 49°12' W 123°05'4 4.5
2017-Jan-17 05:33N 49°11' W 122°58'2 2.2
2017-Jan-17 04:33N 49°11' W 122°55'1 0.8
2017-Jan-17 03:33N 49°10' W 122°56'5 4.8
2017-Jan-17 02:33N 49°13' W 122°50'3 2.6
2017-Jan-17 01:33N 49°14' W 122°46'0 0.0
2017-Jan-17 00:33N 49°14' W 122°46'0 0.0
2017-Jan-16 23:33N 49°14' W 122°46'0 0.0
2017-Jan-16 22:33N 49°14' W 122°46'0 0.0
2017-Jan-16 21:33N 49°14' W 122°46'0 0.0
2017-Jan-16 20:33N 49°14' W 122°46'0 0.0
2017-Jan-16 19:33N 49°14' W 122°46'0 0.0
2017-Jan-16 18:33N 49°14' W 122°46'0 0.0
2017-Jan-16 17:33N 49°14' W 122°46'0 0.0
2017-Jan-16 16:33N 49°14' W 122°46'0 0.0
2017-Jan-16 15:33N 49°14' W 122°46'0 0.0
2017-Jan-16 14:32N 49°14' W 122°46'0 0.0
2017-Jan-16 13:33N 49°14' W 122°46'0 0.0
2017-Jan-16 12:33N 49°14' W 122°46'0 0.0
2017-Jan-16 11:33N 49°14' W 122°46'0 0.0
2017-Jan-16 10:33N 49°14' W 122°46'0 0.0
2017-Jan-16 09:33N 49°14' W 122°46'0 0.0
2017-Jan-16 08:33N 49°14' W 122°46'0 0.0
2017-Jan-16 07:33N 49°14' W 122°46'0 0.0
2017-Jan-16 06:33N 49°14' W 122°46'0 0.0
2017-Jan-16 05:33N 49°14' W 122°46'0 0.0
2017-Jan-15 23:14N 49°14' W 122°46'0 0.0
2017-Jan-15 22:29N 49°14' W 122°46'0 0.0
2017-Jan-15 18:33N 49°14' W 122°46'0 0.0
2017-Jan-15 17:33N 49°14' W 122°46'0 0.0
2017-Jan-15 16:33N 49°14' W 122°46'0 0.0
2017-Jan-15 15:33N 49°14' W 122°46'0 0.0
2017-Jan-15 14:33N 49°14' W 122°46'0 0.0
2017-Jan-15 13:33N 49°14' W 122°46'0 0.0
2017-Jan-15 12:32N 49°14' W 122°46'0 0.0
2017-Jan-15 11:33N 49°14' W 122°46'0 0.0
2017-Jan-15 10:33N 49°14' W 122°46'0 0.0
2017-Jan-15 09:33N 49°14' W 122°46'0 0.0
2017-Jan-15 08:33N 49°14' W 122°46'0 0.0
2017-Jan-15 07:33N 49°14' W 122°46'0 0.0
2017-Jan-15 06:33N 49°14' W 122°46'0 0.0
2017-Jan-15 05:33N 49°14' W 122°46'0 0.0
2017-Jan-15 04:33N 49°14' W 122°46'0 0.0
2017-Jan-14 18:22N 49°14' W 122°46'0 0.0
2017-Jan-14 17:14N 49°14' W 122°46'0 0.0
2017-Jan-14 16:33N 49°14' W 122°46'0 0.0
2017-Jan-14 15:33N 49°14' W 122°46'5 5.2
2017-Jan-14 14:33N 49°13' W 122°54'7 6.7
2017-Jan-14 13:33N 49°09' W 123°02'0 0.5
2017-Jan-14 12:34N 49°09' W 123°03'0 0.3
2017-Jan-14 11:33N 49°08' W 123°03'0 0.0
2017-Jan-14 10:33N 49°08' W 123°03'0 0.0
2017-Jan-14 09:33N 49°08' W 123°03'0 0.0
2017-Jan-14 08:33N 49°08' W 123°03'0 0.0
2017-Jan-14 07:33N 49°08' W 123°03'6 5.8
2017-Jan-14 06:33N 49°11' W 122°55'3 3.2
2017-Jan-14 05:33N 49°11' W 122°60'7 6.5
2017-Jan-14 04:33N 49°13' W 123°10'3 3.2
2017-Jan-14 03:32N 49°14' W 123°14'14 3.4
2017-Jan-13 23:24N 49°28' W 123°18'8 9.1
2017-Jan-13 22:33N 49°20' W 123°17'7 7.4
2017-Jan-13 21:33N 49°19' W 123°06'3 3.3
2017-Jan-13 20:33N 49°19' W 123°11'3 3.4
2017-Jan-13 19:33N 49°18' W 123°06'0 0.3
2017-Jan-13 18:33N 49°19' W 123°06'3 2.7
2017-Jan-13 17:33N 49°18' W 123°02'0 0.0
2017-Jan-13 16:33N 49°18' W 123°02'0 0.0
2017-Jan-13 15:33N 49°18' W 123°02'0 0.0
2017-Jan-13 14:33N 49°18' W 123°02'0 0.0
2017-Jan-13 13:33N 49°18' W 123°02'0 0.0
2017-Jan-13 12:33N 49°18' W 123°02'0 0.0
2017-Jan-13 11:33N 49°18' W 123°02'0 0.0
2017-Jan-13 10:33N 49°18' W 123°02'0 0.0
2017-Jan-13 09:33N 49°18' W 123°02'0 0.0
2017-Jan-13 08:33N 49°18' W 123°02'0 0.0
2017-Jan-13 07:33N 49°18' W 123°02'0 0.0
2017-Jan-13 06:33N 49°18' W 123°02'0 0.0
2017-Jan-13 05:33N 49°18' W 123°02'0 0.0
2017-Jan-13 04:33N 49°18' W 123°02'0 0.0
2017-Jan-13 03:33N 49°18' W 123°02'0 0.0
2017-Jan-13 02:33N 49°18' W 123°02'0 0.0
2017-Jan-13 01:33N 49°18' W 123°02'0 0.0
2017-Jan-13 00:33N 49°18' W 123°02'0 0.0
2017-Jan-12 23:33N 49°18' W 123°02'3 3.5
2017-Jan-12 22:33N 49°18' W 123°07'3 3.3
2017-Jan-12 21:33N 49°18' W 123°12'4 4.3
2017-Jan-12 20:33N 49°16' W 123°18'8 8.3
2017-Jan-12 19:33N 49°07' W 123°19'7 6.8
2017-Jan-12 18:33N 49°06' W 123°08'8 8.3
2017-Jan-12 17:33N 49°10' W 122°57'6 6.2
2017-Jan-12 16:34N 49°13' W 122°49'6 6.3
2017-Jan-12 15:33N 49°12' W 122°40'0 0.1
2017-Jan-12 14:33N 49°12' W 122°40'5 4.8
2017-Jan-12 13:33N 49°14' W 122°46'7 7.4
2017-Jan-12 12:33N 49°10' W 122°56'10 9.9
2017-Jan-12 11:33N 49°07' W 123°10'9 8.9
2017-Jan-12 10:33N 49°07' W 123°23'8 7.9
2017-Jan-12 09:33N 49°09' W 123°35'9 9.3
2017-Jan-12 08:33N 49°12' W 123°48'4 3.9
2017-Jan-12 07:33N 49°09' W 123°53'5 5.4
2017-Jan-12 06:33N 49°11' W 123°45'8 8.2
2017-Jan-12 05:33N 49°09' W 123°33'8 7.9
2017-Jan-12 04:33N 49°07' W 123°22'1010.6
2017-Jan-12 03:33N 49°07' W 123°06'6 6.2
2017-Jan-12 02:33N 49°10' W 122°57'8 8.4
2017-Jan-12 01:33N 49°14' W 122°46'0 0.0
2017-Jan-12 00:33N 49°14' W 122°46'0 0.0
2017-Jan-11 23:33N 49°14' W 122°46'0 0.0
2017-Jan-11 22:33N 49°14' W 122°46'4 3.5
2017-Jan-11 21:33N 49°13' W 122°51'4 4.1
2017-Jan-11 20:33N 49°12' W 122°57'2 1.5
2017-Jan-11 19:33N 49°11' W 122°55'0 0.0
2017-Jan-11 18:33N 49°11' W 122°55'4 3.8
2017-Jan-11 17:33N 49°12' W 123°01'5 4.6
2017-Jan-11 16:33N 49°12' W 123°08'0 0.3
2017-Jan-11 15:33N 49°12' W 123°07'6 6.2
2017-Jan-11 14:33N 49°11' W 122°58'3 3.1
2017-Jan-11 13:33N 49°09' W 123°02'5 4.7
2017-Jan-11 12:33N 49°06' W 123°08'7 6.7
2017-Jan-11 11:33N 49°06' W 123°18'5 5.3
2017-Jan-11 10:33N 49°08' W 123°26'6 5.7
2017-Jan-11 09:33N 49°10' W 123°34'6 5.6
2017-Jan-11 08:32N 49°12' W 123°42'6 5.7
2017-Jan-11 07:32N 49°13' W 123°51'4 3.8
2017-Jan-11 06:33N 49°09' W 123°53'6 5.7
2017-Jan-11 05:33N 49°12' W 123°45'10 9.6
2017-Jan-11 04:33N 49°09' W 123°31'10 9.6
2017-Jan-11 03:33N 49°07' W 123°17'1212.0
2017-Jan-11 02:33N 49°10' W 122°59'2 2.1
2017-Jan-11 01:33N 49°11' W 122°58'0 0.0
2017-Jan-11 00:33N 49°11' W 122°58'4 4.4
2017-Jan-10 23:33N 49°12' W 123°04'8 7.9
2017-Jan-10 22:32N 49°15' W 123°16'6 6.7
2017-Jan-10 21:33N 49°19' W 123°08'1 0.7
2017-Jan-10 20:33N 49°18' W 123°07'7 7.0
2017-Jan-10 19:33N 49°16' W 123°17'5 5.4
2017-Jan-10 18:33N 49°13' W 123°10'8 8.1
2017-Jan-10 17:33N 49°11' W 122°58'2 1.6
2017-Jan-10 16:33N 49°09' W 122°58'1 1.2
2017-Jan-10 15:33N 49°09' W 123°00'3 2.8
2017-Jan-10 14:33N 49°08' W 123°04'5 4.5
2017-Jan-10 13:33N 49°07' W 123°10'4 4.2
2017-Jan-10 12:33N 49°07' W 123°17'3 2.7
2017-Jan-10 11:33N 49°07' W 123°21'5 4.7
2017-Jan-10 10:33N 49°09' W 123°27'5 5.1
2017-Jan-10 09:32N 49°12' W 123°33'5 4.6
2017-Jan-10 08:33N 49°15' W 123°39'1 1.2
2017-Jan-10 07:33N 49°16' W 123°40'8 7.9
2017-Jan-10 06:32N 49°11' W 123°30'8 7.9
2017-Jan-10 05:33N 49°07' W 123°21'9 9.3
2017-Jan-10 04:33N 49°07' W 123°07'10 9.7
2017-Jan-10 03:33N 49°12' W 122°54'5 5.4
2017-Jan-10 02:32N 49°14' W 122°46'0 0.3
2017-Jan-10 01:33N 49°14' W 122°46'0 0.0
2017-Jan-10 00:33N 49°14' W 122°46'0 0.0
2017-Jan-09 23:33N 49°14' W 122°46'0 0.0
2017-Jan-09 22:33N 49°14' W 122°46'0 0.0
2017-Jan-09 21:33N 49°14' W 122°46'0 0.0
2017-Jan-09 20:33N 49°14' W 122°46'0 0.0
2017-Jan-09 19:33N 49°14' W 122°46'0 0.0
2017-Jan-09 18:33N 49°14' W 122°46'0 0.0
2017-Jan-09 17:33N 49°14' W 122°46'0 0.0
2017-Jan-09 16:33N 49°14' W 122°46'0 0.0
2017-Jan-09 15:33N 49°14' W 122°46'0 0.0
2017-Jan-09 14:33N 49°14' W 122°46'0 0.0
2017-Jan-09 13:33N 49°14' W 122°46'0 0.0
2017-Jan-09 12:33N 49°14' W 122°46'0 0.0
2017-Jan-09 11:33N 49°14' W 122°46'0 0.0
2017-Jan-09 10:33N 49°14' W 122°46'0 0.0
2017-Jan-09 09:33N 49°14' W 122°46'0 0.0
2017-Jan-09 08:33N 49°14' W 122°46'0 0.0
2017-Jan-09 07:33N 49°14' W 122°46'0 0.0
2017-Jan-09 06:33N 49°14' W 122°46'0 0.0
2017-Jan-09 05:33N 49°14' W 122°46'0 0.0
2017-Jan-09 04:33N 49°14' W 122°46'0 0.0
2017-Jan-09 03:33N 49°14' W 122°46'0 0.0
2017-Jan-09 02:33N 49°14' W 122°46'0 0.0
2017-Jan-09 01:33N 49°14' W 122°46'0 0.0
2017-Jan-09 00:33N 49°14' W 122°46'0 0.0
2017-Jan-08 23:33N 49°14' W 122°46'0 0.0
2017-Jan-08 22:33N 49°14' W 122°46'0 0.0
2017-Jan-08 21:33N 49°14' W 122°46'0 0.0
2017-Jan-08 20:34N 49°14' W 122°46'0 0.0
2017-Jan-08 19:33N 49°14' W 122°46'0 0.0
2017-Jan-08 18:33N 49°14' W 122°46'0 0.0
2017-Jan-08 17:33N 49°14' W 122°46'0 0.0
2017-Jan-08 16:33N 49°14' W 122°46'0 0.0
2017-Jan-08 15:34N 49°14' W 122°46'0 0.0
2017-Jan-08 14:34N 49°14' W 122°46'0 0.0
2017-Jan-08 13:33N 49°14' W 122°46'0 0.0
2017-Jan-08 12:34N 49°14' W 122°46'2 2.2
2017-Jan-08 11:34N 49°13' W 122°49'6 5.7
2017-Jan-08 10:34N 49°12' W 122°57'0 0.2
2017-Jan-08 09:33N 49°12' W 122°57'8 7.7
2017-Jan-08 08:33N 49°12' W 123°09'7 6.6
2017-Jan-08 07:34N 49°18' W 123°14'5 5.4
2017-Jan-08 06:34N 49°19' W 123°06'7 6.9
2017-Jan-08 05:33N 49°17' W 123°17'0 0.3
2017-Jan-08 04:34N 49°17' W 123°16'6 4.6
2017-Jan-08 03:16N 49°18' W 123°07'3 4.9
2017-Jan-08 02:34N 49°18' W 123°02'0 0.0
2017-Jan-08 01:33N 49°18' W 123°02'0 0.0
2017-Jan-08 00:33N 49°18' W 123°02'0 0.0
2017-Jan-07 23:34N 49°18' W 123°02'0 0.0
2017-Jan-07 22:33N 49°18' W 123°02'0 0.0
2017-Jan-07 21:33N 49°18' W 123°02'0 0.0
2017-Jan-07 20:33N 49°18' W 123°02'0 0.0
2017-Jan-07 19:33N 49°18' W 123°02'0 0.0
2017-Jan-07 18:33N 49°18' W 123°02'0 0.0
2017-Jan-07 17:33N 49°18' W 123°02'  
Track history (hours):
 
Tides and Currents Weather Stations Pressure Air Temp Water Temp Dewpoint Dewpoint Depression Visibility Wind Speed Wind Dir Waves Ship Positions

Westview Chinook

Last reported at 2017-Jan-17 16:33 UTC. Time now 2017-Jan-17 17:07 UTC.
Position N 49°09' W 123°00'.

Length 15 m.

Type: Tug. MMSI: 316005622.

Date/timePositionNaut miles runAvg speedWind from/ knotsBaromVisibWave heightAir tempDewpointWater temp
2017-Jan-17 16:33N 49°09' W 123°00'0 0.0
2017-Jan-17 15:33N 49°09' W 123°00'5 5.3
2017-Jan-17 14:33N 49°12' W 122°54'3 2.9
2017-Jan-17 13:34N 49°13' W 122°50'4 3.7
2017-Jan-17 12:33N 49°12' W 122°55'5 5.5
2017-Jan-17 11:33N 49°09' W 123°02'5 4.8
2017-Jan-17 10:33N 49°07' W 123°09'4 4.1
2017-Jan-17 09:33N 49°08' W 123°15'3 2.7
2017-Jan-17 08:33N 49°08' W 123°19'7 7.5
2017-Jan-17 07:33N 49°15' W 123°16'8 8.2
2017-Jan-17 06:33N 49°12' W 123°05'4 4.5
2017-Jan-17 05:33N 49°11' W 122°58'2 2.2
2017-Jan-17 04:33N 49°11' W 122°55'1 0.8
2017-Jan-17 03:33N 49°10' W 122°56'5 4.8
2017-Jan-17 02:33N 49°13' W 122°50'3 2.6
2017-Jan-17 01:33N 49°14' W 122°46'0 0.0
2017-Jan-17 00:33N 49°14' W 122°46'0 0.0
2017-Jan-16 23:33N 49°14' W 122°46'0 0.0
2017-Jan-16 22:33N 49°14' W 122°46'0 0.0
2017-Jan-16 21:33N 49°14' W 122°46'0 0.0
2017-Jan-16 20:33N 49°14' W 122°46'0 0.0
2017-Jan-16 19:33N 49°14' W 122°46'0 0.0
2017-Jan-16 18:33N 49°14' W 122°46'0 0.0
2017-Jan-16 17:33N 49°14' W 122°46'0 0.0
2017-Jan-16 16:33N 49°14' W 122°46'0 0.0
2017-Jan-16 15:33N 49°14' W 122°46'0 0.0
2017-Jan-16 14:32N 49°14' W 122°46'0 0.0
2017-Jan-16 13:33N 49°14' W 122°46'0 0.0
2017-Jan-16 12:33N 49°14' W 122°46'0 0.0
2017-Jan-16 11:33N 49°14' W 122°46'0 0.0
2017-Jan-16 10:33N 49°14' W 122°46'0 0.0
2017-Jan-16 09:33N 49°14' W 122°46'0 0.0
2017-Jan-16 08:33N 49°14' W 122°46'0 0.0
2017-Jan-16 07:33N 49°14' W 122°46'0 0.0
2017-Jan-16 06:33N 49°14' W 122°46'0 0.0
2017-Jan-16 05:33N 49°14' W 122°46'0 0.0
2017-Jan-15 23:14N 49°14' W 122°46'0 0.0
2017-Jan-15 22:29N 49°14' W 122°46'0 0.0
2017-Jan-15 18:33N 49°14' W 122°46'0 0.0
2017-Jan-15 17:33N 49°14' W 122°46'0 0.0
2017-Jan-15 16:33N 49°14' W 122°46'0 0.0
2017-Jan-15 15:33N 49°14' W 122°46'0 0.0
2017-Jan-15 14:33N 49°14' W 122°46'0 0.0
2017-Jan-15 13:33N 49°14' W 122°46'0 0.0
2017-Jan-15 12:32N 49°14' W 122°46'0 0.0
2017-Jan-15 11:33N 49°14' W 122°46'0 0.0
2017-Jan-15 10:33N 49°14' W 122°46'0 0.0
2017-Jan-15 09:33N 49°14' W 122°46'0 0.0
2017-Jan-15 08:33N 49°14' W 122°46'0 0.0
2017-Jan-15 07:33N 49°14' W 122°46'0 0.0
2017-Jan-15 06:33N 49°14' W 122°46'0 0.0
2017-Jan-15 05:33N 49°14' W 122°46'0 0.0
2017-Jan-15 04:33N 49°14' W 122°46'0 0.0
2017-Jan-14 18:22N 49°14' W 122°46'0 0.0
2017-Jan-14 17:14N 49°14' W 122°46'0 0.0
2017-Jan-14 16:33N 49°14' W 122°46'0 0.0
2017-Jan-14 15:33N 49°14' W 122°46'5 5.2
2017-Jan-14 14:33N 49°13' W 122°54'7 6.7
2017-Jan-14 13:33N 49°09' W 123°02'0 0.5
2017-Jan-14 12:34N 49°09' W 123°03'0 0.3
2017-Jan-14 11:33N 49°08' W 123°03'0 0.0
2017-Jan-14 10:33N 49°08' W 123°03'0 0.0
2017-Jan-14 09:33N 49°08' W 123°03'0 0.0
2017-Jan-14 08:33N 49°08' W 123°03'0 0.0
2017-Jan-14 07:33N 49°08' W 123°03'6 5.8
2017-Jan-14 06:33N 49°11' W 122°55'3 3.2
2017-Jan-14 05:33N 49°11' W 122°60'7 6.5
2017-Jan-14 04:33N 49°13' W 123°10'3 3.2
2017-Jan-14 03:32N 49°14' W 123°14'14 3.4
2017-Jan-13 23:24N 49°28' W 123°18'8 9.1
2017-Jan-13 22:33N 49°20' W 123°17'7 7.4
2017-Jan-13 21:33N 49°19' W 123°06'3 3.3
2017-Jan-13 20:33N 49°19' W 123°11'3 3.4
2017-Jan-13 19:33N 49°18' W 123°06'0 0.3
2017-Jan-13 18:33N 49°19' W 123°06'3 2.7
2017-Jan-13 17:33N 49°18' W 123°02'0 0.0
2017-Jan-13 16:33N 49°18' W 123°02'0 0.0
2017-Jan-13 15:33N 49°18' W 123°02'0 0.0
2017-Jan-13 14:33N 49°18' W 123°02'0 0.0
2017-Jan-13 13:33N 49°18' W 123°02'0 0.0
2017-Jan-13 12:33N 49°18' W 123°02'0 0.0
2017-Jan-13 11:33N 49°18' W 123°02'0 0.0
2017-Jan-13 10:33N 49°18' W 123°02'0 0.0
2017-Jan-13 09:33N 49°18' W 123°02'0 0.0
2017-Jan-13 08:33N 49°18' W 123°02'0 0.0
2017-Jan-13 07:33N 49°18' W 123°02'0 0.0
2017-Jan-13 06:33N 49°18' W 123°02'0 0.0
2017-Jan-13 05:33N 49°18' W 123°02'0 0.0
2017-Jan-13 04:33N 49°18' W 123°02'0 0.0
2017-Jan-13 03:33N 49°18' W 123°02'0 0.0
2017-Jan-13 02:33N 49°18' W 123°02'0 0.0
2017-Jan-13 01:33N 49°18' W 123°02'0 0.0
2017-Jan-13 00:33N 49°18' W 123°02'0 0.0
2017-Jan-12 23:33N 49°18' W 123°02'3 3.5
2017-Jan-12 22:33N 49°18' W 123°07'3 3.3
2017-Jan-12 21:33N 49°18' W 123°12'4 4.3
2017-Jan-12 20:33N 49°16' W 123°18'8 8.3
2017-Jan-12 19:33N 49°07' W 123°19'7 6.8
2017-Jan-12 18:33N 49°06' W 123°08'8 8.3
2017-Jan-12 17:33N 49°10' W 122°57'6 6.2
2017-Jan-12 16:34N 49°13' W 122°49'6 6.3
2017-Jan-12 15:33N 49°12' W 122°40'0 0.1
2017-Jan-12 14:33N 49°12' W 122°40'5 4.8
2017-Jan-12 13:33N 49°14' W 122°46'7 7.4
2017-Jan-12 12:33N 49°10' W 122°56'10 9.9
2017-Jan-12 11:33N 49°07' W 123°10'9 8.9
2017-Jan-12 10:33N 49°07' W 123°23'8 7.9
2017-Jan-12 09:33N 49°09' W 123°35'9 9.3
2017-Jan-12 08:33N 49°12' W 123°48'4 3.9
2017-Jan-12 07:33N 49°09' W 123°53'5 5.4
2017-Jan-12 06:33N 49°11' W 123°45'8 8.2
2017-Jan-12 05:33N 49°09' W 123°33'8 7.9
2017-Jan-12 04:33N 49°07' W 123°22'1010.6
2017-Jan-12 03:33N 49°07' W 123°06'6 6.2
2017-Jan-12 02:33N 49°10' W 122°57'8 8.4
2017-Jan-12 01:33N 49°14' W 122°46'0 0.0
2017-Jan-12 00:33N 49°14' W 122°46'0 0.0
2017-Jan-11 23:33N 49°14' W 122°46'0 0.0
2017-Jan-11 22:33N 49°14' W 122°46'4 3.5
2017-Jan-11 21:33N 49°13' W 122°51'4 4.1
2017-Jan-11 20:33N 49°12' W 122°57'2 1.5
2017-Jan-11 19:33N 49°11' W 122°55'0 0.0
2017-Jan-11 18:33N 49°11' W 122°55'4 3.8
2017-Jan-11 17:33N 49°12' W 123°01'5 4.6
2017-Jan-11 16:33N 49°12' W 123°08'0 0.3
2017-Jan-11 15:33N 49°12' W 123°07'6 6.2
2017-Jan-11 14:33N 49°11' W 122°58'3 3.1
2017-Jan-11 13:33N 49°09' W 123°02'5 4.7
2017-Jan-11 12:33N 49°06' W 123°08'7 6.7
2017-Jan-11 11:33N 49°06' W 123°18'5 5.3
2017-Jan-11 10:33N 49°08' W 123°26'6 5.7
2017-Jan-11 09:33N 49°10' W 123°34'6 5.6
2017-Jan-11 08:32N 49°12' W 123°42'6 5.7
2017-Jan-11 07:32N 49°13' W 123°51'4 3.8
2017-Jan-11 06:33N 49°09' W 123°53'6 5.7
2017-Jan-11 05:33N 49°12' W 123°45'10 9.6
2017-Jan-11 04:33N 49°09' W 123°31'10 9.6
2017-Jan-11 03:33N 49°07' W 123°17'1212.0
2017-Jan-11 02:33N 49°10' W 122°59'2 2.1
2017-Jan-11 01:33N 49°11' W 122°58'0 0.0
2017-Jan-11 00:33N 49°11' W 122°58'4 4.4
2017-Jan-10 23:33N 49°12' W 123°04'8 7.9
2017-Jan-10 22:32N 49°15' W 123°16'6 6.7
2017-Jan-10 21:33N 49°19' W 123°08'1 0.7
2017-Jan-10 20:33N 49°18' W 123°07'7 7.0
2017-Jan-10 19:33N 49°16' W 123°17'5 5.4
2017-Jan-10 18:33N 49°13' W 123°10'8 8.1
2017-Jan-10 17:33N 49°11' W 122°58'2 1.6
2017-Jan-10 16:33N 49°09' W 122°58'1 1.2
2017-Jan-10 15:33N 49°09' W 123°00'3 2.8
2017-Jan-10 14:33N 49°08' W 123°04'5 4.5
2017-Jan-10 13:33N 49°07' W 123°10'4 4.2
2017-Jan-10 12:33N 49°07' W 123°17'3 2.7
2017-Jan-10 11:33N 49°07' W 123°21'5 4.7
2017-Jan-10 10:33N 49°09' W 123°27'5 5.1
2017-Jan-10 09:32N 49°12' W 123°33'5 4.6
2017-Jan-10 08:33N 49°15' W 123°39'1 1.2
2017-Jan-10 07:33N 49°16' W 123°40'8 7.9
2017-Jan-10 06:32N 49°11' W 123°30'8 7.9
2017-Jan-10 05:33N 49°07' W 123°21'9 9.3
2017-Jan-10 04:33N 49°07' W 123°07'10 9.7
2017-Jan-10 03:33N 49°12' W 122°54'5 5.4
2017-Jan-10 02:32N 49°14' W 122°46'0 0.3
2017-Jan-10 01:33N 49°14' W 122°46'0 0.0
2017-Jan-10 00:33N 49°14' W 122°46'0 0.0
2017-Jan-09 23:33N 49°14' W 122°46'0 0.0
2017-Jan-09 22:33N 49°14' W 122°46'0 0.0
2017-Jan-09 21:33N 49°14' W 122°46'0 0.0
2017-Jan-09 20:33N 49°14' W 122°46'0 0.0
2017-Jan-09 19:33N 49°14' W 122°46'0 0.0
2017-Jan-09 18:33N 49°14' W 122°46'0 0.0
2017-Jan-09 17:33N 49°14' W 122°46'0 0.0
2017-Jan-09 16:33N 49°14' W 122°46'0 0.0
2017-Jan-09 15:33N 49°14' W 122°46'0 0.0
2017-Jan-09 14:33N 49°14' W 122°46'0 0.0
2017-Jan-09 13:33N 49°14' W 122°46'0 0.0
2017-Jan-09 12:33N 49°14' W 122°46'0 0.0
2017-Jan-09 11:33N 49°14' W 122°46'0 0.0
2017-Jan-09 10:33N 49°14' W 122°46'0 0.0
2017-Jan-09 09:33N 49°14' W 122°46'0 0.0
2017-Jan-09 08:33N 49°14' W 122°46'0 0.0
2017-Jan-09 07:33N 49°14' W 122°46'0 0.0
2017-Jan-09 06:33N 49°14' W 122°46'0 0.0
2017-Jan-09 05:33N 49°14' W 122°46'0 0.0
2017-Jan-09 04:33N 49°14' W 122°46'0 0.0
2017-Jan-09 03:33N 49°14' W 122°46'0 0.0
2017-Jan-09 02:33N 49°14' W 122°46'0 0.0
2017-Jan-09 01:33N 49°14' W 122°46'0 0.0
2017-Jan-09 00:33N 49°14' W 122°46'0 0.0
2017-Jan-08 23:33N 49°14' W 122°46'0 0.0
2017-Jan-08 22:33N 49°14' W 122°46'0 0.0
2017-Jan-08 21:33N 49°14' W 122°46'0 0.0
2017-Jan-08 20:34N 49°14' W 122°46'0 0.0
2017-Jan-08 19:33N 49°14' W 122°46'0 0.0
2017-Jan-08 18:33N 49°14' W 122°46'0 0.0
2017-Jan-08 17:33N 49°14' W 122°46'0 0.0
2017-Jan-08 16:33N 49°14' W 122°46'0 0.0
2017-Jan-08 15:34N 49°14' W 122°46'0 0.0
2017-Jan-08 14:34N 49°14' W 122°46'0 0.0
2017-Jan-08 13:33N 49°14' W 122°46'0 0.0
2017-Jan-08 12:34N 49°14' W 122°46'2 2.2
2017-Jan-08 11:34N 49°13' W 122°49'6 5.7
2017-Jan-08 10:34N 49°12' W 122°57'0 0.2
2017-Jan-08 09:33N 49°12' W 122°57'8 7.7
2017-Jan-08 08:33N 49°12' W 123°09'7 6.6
2017-Jan-08 07:34N 49°18' W 123°14'5 5.4
2017-Jan-08 06:34N 49°19' W 123°06'7 6.9
2017-Jan-08 05:33N 49°17' W 123°17'0 0.3
2017-Jan-08 04:34N 49°17' W 123°16'6 4.6
2017-Jan-08 03:16N 49°18' W 123°07'3 4.9
2017-Jan-08 02:34N 49°18' W 123°02'0 0.0
2017-Jan-08 01:33N 49°18' W 123°02'0 0.0
2017-Jan-08 00:33N 49°18' W 123°02'0 0.0
2017-Jan-07 23:34N 49°18' W 123°02'0 0.0
2017-Jan-07 22:33N 49°18' W 123°02'0 0.0
2017-Jan-07 21:33N 49°18' W 123°02'0 0.0
2017-Jan-07 20:33N 49°18' W 123°02'0 0.0
2017-Jan-07 19:33N 49°18' W 123°02'0 0.0
2017-Jan-07 18:33N 49°18' W 123°02'0 0.0
2017-Jan-07 17:33N 49°18' W 123°02'  

Dump ship's entire track history